Ana Sayfa
METAR-TAF:

METAR-TAF

Havaalanları :

Pottstown Limerick Airport

Pottstown, Pensilvanya, Amerika Birleşik Devletleri

Enlem: 40-14-18N, Boylam: 075-33-26W, yükseklik: 89 m

Güncel hava durumu gözlemi

Rapor saat 21:54 UTC de 30 dakika önce yapıldı.
Rüzgar kuzeydoğudan 4 kt
Sıcaklık 1°C
Nem 27%
Basınç 1030 hPa
Görüş mesafesi: 14.5 km
Açık gökyüzü
hafif kar

METAR: KPTW 162154Z AUTO 05004KT 9SM -SN CLR 01/M16 A3042 RMK AO2 SLP302 P0000 T00111161

Saat: 17:24 (22:24 UTC)


TAF: eksik

4.000'den fazla havaalanı için hava durumu gözlemleri ve tahminleri (METAR ve TAF raporları).

Kullanılabilir istasyonlar harita üzerinde sarı ve kırmızı noktalarla gösterilir.

İstasyonun adını görmek için fareyi noktanın üzerinde gezdirin.

Sonrasında hava gözlem ve tahminlerini görmek için tıklayın.

Haritayı değiştirmek için: yaklaştırmak için siyah artı işaretli yeşil düğmeye ve uzaklaştırmak için de eksi işaretli düğmeye hızla tıklayın; bitişik haritalar için yeşil okları kullanın.


METAR-TAF: